createdAt,value
2023-12-24T00:00:28.228Z,96.09
2023-12-24T00:05:31.395Z,95.72
2023-12-24T00:10:34.570Z,95.48
2023-12-24T00:15:37.739Z,95.15
2023-12-24T00:20:41.232Z,95.11
2023-12-24T00:25:44.421Z,94.91
2023-12-24T00:30:47.780Z,94.70
2023-12-24T00:35:51.232Z,94.76
2023-12-24T00:40:54.420Z,94.46
2023-12-24T00:45:57.434Z,94.39
2023-12-24T00:51:00.550Z,94.50
2023-12-24T00:56:03.805Z,94.57
2023-12-24T01:01:07.044Z,95.39
2023-12-24T01:06:10.569Z,95.49
2023-12-24T01:11:14.363Z,95.97
2023-12-24T01:16:18.016Z,96.14
2023-12-24T01:21:21.174Z,96.20
2023-12-24T01:26:24.244Z,96.62
2023-12-24T01:31:28.547Z,96.31
2023-12-24T01:36:50.116Z,96.22
2023-12-24T01:41:53.398Z,96.46
2023-12-24T01:46:56.632Z,96.52
2023-12-24T01:52:00.380Z,96.81
2023-12-24T01:57:03.931Z,96.87
2023-12-24T02:02:07.161Z,97.26
2023-12-24T02:07:12.787Z,97.24
2023-12-24T02:12:17.749Z,97.33
2023-12-24T02:17:23.568Z,97.18
2023-12-24T02:22:27.264Z,97.08
2023-12-24T02:27:36.300Z,97.51
2023-12-24T02:32:42.379Z,97.55
2023-12-24T02:37:45.933Z,97.41
2023-12-24T02:42:49.358Z,97.75
2023-12-24T02:47:52.833Z,97.57
2023-12-24T02:52:56.076Z,97.21
2023-12-24T02:58:00.350Z,97.08
2023-12-24T03:03:03.584Z,96.88
2023-12-24T03:08:06.865Z,96.75
2023-12-24T03:13:09.937Z,96.25
2023-12-24T03:18:13.308Z,96.42
2023-12-24T03:23:16.597Z,96.61
2023-12-24T03:28:19.613Z,96.57
2023-12-24T03:33:23.655Z,96.89
2023-12-24T03:38:26.887Z,96.98
2023-12-24T03:43:31.125Z,96.58
2023-12-24T03:48:37.453Z,96.56
2023-12-24T03:53:40.537Z,97.11
2023-12-24T03:58:43.620Z,96.80
2023-12-24T04:03:49.548Z,96.46
2023-12-24T04:08:54.895Z,96.14
2023-12-24T04:14:00.080Z,95.34
2023-12-24T04:19:03.748Z,94.92
2023-12-24T04:24:07.453Z,94.53
2023-12-24T04:29:10.666Z,93.65
2023-12-24T04:34:14.930Z,93.17
2023-12-24T04:39:19.044Z,92.90
2023-12-24T04:44:22.263Z,92.99
2023-12-24T04:49:25.531Z,92.89
2023-12-24T04:54:29.196Z,92.27
2023-12-24T04:59:32.439Z,92.44
2023-12-24T05:04:36.610Z,92.03
2023-12-24T05:09:44.975Z,91.83
2023-12-24T05:14:49.403Z,91.89
2023-12-24T05:19:53.001Z,92.56
2023-12-24T05:24:56.284Z,92.91
2023-12-24T05:29:59.995Z,92.94
2023-12-24T05:35:03.338Z,93.52
2023-12-24T05:40:07.195Z,93.56
2023-12-24T05:45:13.231Z,92.95
2023-12-24T05:50:16.351Z,93.19
2023-12-24T05:55:19.384Z,93.19
2023-12-24T06:00:22.533Z,93.20
2023-12-24T06:05:25.715Z,93.09
2023-12-24T06:10:28.808Z,93.04
2023-12-24T06:15:32.443Z,92.35
2023-12-24T06:20:38.121Z,92.30
2023-12-24T06:25:41.656Z,91.24
2023-12-24T06:30:44.949Z,91.67
2023-12-24T06:35:48.074Z,90.46
2023-12-24T06:40:51.203Z,88.29
2023-12-24T06:45:54.408Z,87.53
2023-12-24T06:50:57.554Z,86.67
2023-12-24T06:56:00.638Z,86.64
2023-12-24T07:01:04.094Z,85.88
2023-12-24T07:06:07.580Z,85.58
2023-12-24T07:11:11.255Z,86.05
2023-12-24T07:16:14.362Z,85.04
2023-12-24T07:21:18.066Z,84.29
2023-12-24T07:26:22.548Z,85.23
2023-12-24T07:31:25.701Z,85.36
2023-12-24T07:36:28.852Z,85.57
2023-12-24T07:41:32.865Z,85.75
2023-12-24T07:46:38.404Z,85.78
2023-12-24T07:51:42.602Z,86.47
2023-12-24T07:56:45.704Z,86.44
2023-12-24T08:01:48.794Z,84.91
2023-12-24T08:06:55.770Z,84.89
2023-12-24T08:12:00.020Z,85.55
2023-12-24T08:17:03.249Z,85.59
2023-12-24T08:22:06.516Z,85.31
2023-12-24T08:27:09.851Z,83.86
2023-12-24T08:32:13.071Z,83.88
2023-12-24T08:37:16.513Z,83.74
2023-12-24T08:42:19.670Z,82.20
2023-12-24T08:47:22.972Z,82.76
2023-12-24T08:52:26.900Z,83.06
2023-12-24T08:57:30.189Z,83.32
2023-12-24T09:02:33.401Z,82.56
2023-12-24T09:07:37.028Z,82.40
2023-12-24T09:12:40.019Z,81.28
2023-12-24T09:17:43.374Z,80.35
2023-12-24T09:22:47.025Z,80.23
2023-12-24T09:27:50.259Z,78.83
2023-12-24T09:32:53.710Z,80.29
2023-12-24T09:37:57.193Z,79.75
2023-12-24T09:43:01.626Z,78.64
2023-12-24T09:48:05.367Z,78.94
2023-12-24T09:53:08.851Z,76.83
2023-12-24T09:58:12.058Z,77.22
2023-12-24T10:03:15.214Z,76.89
2023-12-24T10:08:19.255Z,76.61
2023-12-24T10:13:23.681Z,76.23
2023-12-24T10:18:26.997Z,75.37
2023-12-24T10:23:31.267Z,76.48
2023-12-24T10:28:35.240Z,76.82
2023-12-24T10:33:39.608Z,75.86
2023-12-24T10:38:43.476Z,75.95
2023-12-24T10:43:46.965Z,76.63
2023-12-24T10:48:50.717Z,76.22
2023-12-24T10:53:55.114Z,74.48
2023-12-24T10:59:04.988Z,75.62
2023-12-24T11:04:08.209Z,74.69
2023-12-24T11:09:17.467Z,75.11
2023-12-24T11:14:47.342Z,74.37
2023-12-24T11:19:50.730Z,75.02
2023-12-24T11:25:17.990Z,75.94
2023-12-24T11:30:22.001Z,75.62
2023-12-24T11:35:53.662Z,74.97
2023-12-24T11:41:06.499Z,73.83
2023-12-24T11:46:13.389Z,74.42
2023-12-24T11:51:16.730Z,74.58
2023-12-24T11:56:21.606Z,75.15
2023-12-24T12:01:27.170Z,75.91
2023-12-24T12:06:36.497Z,75.23
2023-12-24T12:11:42.726Z,74.08
2023-12-24T12:16:46.153Z,74.45
2023-12-24T12:21:49.553Z,73.48
2023-12-24T12:26:53.089Z,74.43
2023-12-24T12:31:59.459Z,73.48
2023-12-24T12:37:02.530Z,73.89
2023-12-24T12:42:06.185Z,72.08
2023-12-24T12:47:09.272Z,73.91
2023-12-24T12:52:12.649Z,73.40
2023-12-24T12:57:33.533Z,73.48
2023-12-24T13:02:43.513Z,73.65
2023-12-24T13:07:47.149Z,73.66
2023-12-24T13:13:12.091Z,73.83
2023-12-24T13:18:20.047Z,73.73
2023-12-24T13:23:25.428Z,73.11
2023-12-24T13:28:29.989Z,72.70
2023-12-24T13:33:34.082Z,72.85
2023-12-24T13:38:37.495Z,74.19
2023-12-24T13:43:41.317Z,73.65
2023-12-24T13:48:44.586Z,73.98
2023-12-24T13:53:49.303Z,74.03
2023-12-24T13:58:52.382Z,74.02
2023-12-24T14:03:55.645Z,75.25
2023-12-24T14:08:59.783Z,76.37
2023-12-24T14:14:03.008Z,76.21
2023-12-24T14:19:07.579Z,77.75
2023-12-24T14:24:10.688Z,78.39
2023-12-24T14:29:14.361Z,78.73
2023-12-24T14:34:36.874Z,78.74
2023-12-24T14:39:40.227Z,79.49
2023-12-24T14:44:44.855Z,79.30
2023-12-24T14:49:48.424Z,79.29
2023-12-24T14:54:51.685Z,78.97
2023-12-24T14:59:58.525Z,79.58
2023-12-24T15:05:02.221Z,82.66
2023-12-24T15:10:08.583Z,82.65
2023-12-24T15:15:12.801Z,82.28
2023-12-24T15:20:16.080Z,83.72
2023-12-24T15:25:19.913Z,84.00
2023-12-24T15:30:23.058Z,83.76
2023-12-24T15:35:26.426Z,82.95
2023-12-24T15:40:29.466Z,82.19
2023-12-24T15:45:36.734Z,83.73
2023-12-24T15:50:42.341Z,83.97
2023-12-24T15:56:04.235Z,83.51
2023-12-24T16:01:07.710Z,83.57
2023-12-24T16:06:11.284Z,83.67
2023-12-24T16:11:14.584Z,82.27
2023-12-24T16:16:17.911Z,80.89
2023-12-24T16:21:20.972Z,80.44
2023-12-24T16:26:24.230Z,80.56
2023-12-24T16:31:28.080Z,80.76
2023-12-24T16:36:31.427Z,79.45
2023-12-24T16:41:45.710Z,80.03
2023-12-24T16:46:49.051Z,80.69
2023-12-24T16:51:52.309Z,81.09
2023-12-24T16:56:55.528Z,81.93
2023-12-24T17:01:58.564Z,82.58
2023-12-24T17:07:01.838Z,82.33
2023-12-24T17:12:06.559Z,82.28
2023-12-24T17:17:11.364Z,81.44
2023-12-24T17:22:14.684Z,81.05
2023-12-24T17:27:18.122Z,81.53
2023-12-24T17:32:21.790Z,81.03
2023-12-24T17:37:25.050Z,81.62
2023-12-24T17:42:28.144Z,81.20
2023-12-24T17:47:32.032Z,81.37
2023-12-24T17:52:35.282Z,81.22
2023-12-24T17:57:38.590Z,81.00
2023-12-24T18:02:41.680Z,81.27
2023-12-24T18:07:45.248Z,81.70
2023-12-24T18:12:50.087Z,81.11
2023-12-24T18:17:53.291Z,80.14
2023-12-24T18:22:56.641Z,80.93
2023-12-24T18:28:00.508Z,80.81
2023-12-24T18:33:04.378Z,80.46
2023-12-24T18:38:07.779Z,80.88
2023-12-24T18:43:10.945Z,82.10
2023-12-24T18:48:14.472Z,84.06
2023-12-24T18:53:17.814Z,86.00
2023-12-24T18:58:21.225Z,86.81
2023-12-24T19:03:24.455Z,87.84
2023-12-24T19:08:27.992Z,87.83
2023-12-24T19:13:31.077Z,87.87
2023-12-24T19:18:34.354Z,87.69
2023-12-24T19:23:37.764Z,88.26
2023-12-24T19:28:42.294Z,89.10
2023-12-24T19:33:45.937Z,89.20
2023-12-24T19:38:49.361Z,89.88
2023-12-24T19:43:52.533Z,89.84
2023-12-24T19:48:55.837Z,90.22
2023-12-24T19:53:59.064Z,89.98
2023-12-24T19:59:02.349Z,88.91
2023-12-24T20:04:06.730Z,88.43
2023-12-24T20:09:10.943Z,88.60
2023-12-24T20:14:14.193Z,87.80
2023-12-24T20:19:17.358Z,85.06
2023-12-24T20:24:20.839Z,84.43
2023-12-24T20:29:42.528Z,84.81
2023-12-24T20:34:45.964Z,83.93
2023-12-24T20:39:49.099Z,83.67
2023-12-24T20:44:55.092Z,83.83
2023-12-24T20:50:00.795Z,83.30
2023-12-24T20:55:04.261Z,83.44
2023-12-24T21:00:08.713Z,83.23
2023-12-24T21:05:16.480Z,82.82
2023-12-24T21:10:19.910Z,83.25
2023-12-24T21:15:23.137Z,83.87
2023-12-24T21:20:26.344Z,84.43
2023-12-24T21:25:29.891Z,85.89
2023-12-24T21:30:33.214Z,86.70
2023-12-24T21:35:38.567Z,86.74
2023-12-24T21:40:42.167Z,86.78
2023-12-24T21:45:45.803Z,87.07
2023-12-24T21:50:49.177Z,87.02
2023-12-24T21:55:52.330Z,86.62
2023-12-24T22:00:55.446Z,86.41
2023-12-24T22:06:01.134Z,86.84
2023-12-24T22:11:04.761Z,86.46
2023-12-24T22:16:20.065Z,86.51
2023-12-24T22:21:53.223Z,85.91
2023-12-24T22:26:56.676Z,86.52
2023-12-24T22:31:59.867Z,86.08
2023-12-24T22:37:03.463Z,85.59
2023-12-24T22:42:06.774Z,85.95
2023-12-24T22:47:09.869Z,86.13
2023-12-24T22:52:13.874Z,86.39
2023-12-24T22:57:17.104Z,86.36
2023-12-24T23:02:20.354Z,86.25
2023-12-24T23:07:23.558Z,86.16
2023-12-24T23:12:26.840Z,86.58
2023-12-24T23:17:30.049Z,86.08
2023-12-24T23:22:33.370Z,86.33
2023-12-24T23:27:36.517Z,86.03
2023-12-24T23:32:39.859Z,85.86
2023-12-24T23:37:43.402Z,86.12
2023-12-24T23:42:46.536Z,86.45
2023-12-24T23:47:49.591Z,86.65
2023-12-24T23:52:52.748Z,86.37
2023-12-24T23:57:55.990Z,85.93
